Time;durP1;ratioP1;P1;durP2;ratioP2;P2;SDS_P1;SDS_P2;PMS_P1;PMS_P2;Temp;Humidity;BMP_temperature;BMP_pressure;BME280_temperature;BME280_humidity;BME280_pressure;Samples;Min_cycle;Max_cycle;Signal;HPM_P1;HPM_P2
2024/04/02 00:01:35;;;;;;;33.97;6.75;;;;;;;22.15;18.08;93210.97;5044089;28;20032;-76
2024/04/02 00:04:11;;;;;;;27.15;4.85;;;;;;;22.11;18.30;93180.38;5044126;28;20032;-75
2024/04/02 00:06:37;;;;;;;33.85;5.68;;;;;;;22.11;17.83;93204.78;5043950;28;20028;-76
2024/04/02 00:09:03;;;;;;;51.15;4.68;;;;;;;22.14;18.25;93182.25;5043996;28;20022;-75
2024/04/02 00:11:30;;;;;;;30.48;4.78;;;;;;;22.09;18.17;93190.84;5043918;28;20080;-74
2024/04/02 00:13:55;;;;;;;41.15;5.18;;;;;;;22.07;18.30;93176.91;5043163;28;20032;-72
2024/04/02 00:16:21;;;;;;;54.20;4.57;;;;;;;22.09;17.87;93179.25;5043543;28;20025;-75
2024/04/02 00:18:46;;;;;;;33.45;5.32;;;;;;;22.08;17.96;93155.97;5042392;28;20065;-72
2024/04/02 00:21:13;;;;;;;35.63;5.20;;;;;;;22.06;18.32;93183.50;5043438;28;20237;-75
2024/04/02 00:23:41;;;;;;;34.80;4.95;;;;;;;22.04;18.48;93180.44;5042280;28;20096;-75
2024/04/02 00:26:07;;;;;;;29.33;4.93;;;;;;;22.06;18.33;93202.50;5043560;28;20124;-76
2024/04/02 00:28:32;;;;;;;29.02;3.90;;;;;;;22.04;18.11;93172.28;5043453;28;20029;-77
2024/04/02 00:31:01;;;;;;;38.35;4.63;;;;;;;21.97;18.58;93191.34;5043523;28;20325;-77
2024/04/02 00:33:28;;;;;;;26.58;4.82;;;;;;;21.95;18.48;93180.91;5043099;28;20096;-75
2024/04/02 00:36:06;;;;;;;26.35;4.70;;;;;;;21.95;18.64;93186.31;5041925;28;20142;-76
2024/04/02 00:38:32;;;;;;;23.25;4.88;;;;;;;21.94;18.57;93194.84;5043430;28;20037;-76
2024/04/02 00:40:58;;;;;;;29.05;4.85;;;;;;;21.86;18.03;93186.03;5043218;28;20085;-76
2024/04/02 00:43:24;;;;;;;32.75;6.13;;;;;;;21.91;18.72;93191.00;5043253;28;20052;-76
2024/04/02 00:45:49;;;;;;;51.50;5.75;;;;;;;21.84;18.76;93202.72;5043111;28;20028;-76
2024/04/02 00:48:16;;;;;;;33.55;5.28;;;;;;;21.87;18.62;93194.94;5041785;28;20024;-76
2024/04/02 00:50:42;;;;;;;54.75;5.43;;;;;;;21.77;18.93;93180.28;5043283;28;20093;-76
2024/04/02 00:53:08;;;;;;;46.92;5.00;;;;;;;21.75;18.85;93183.41;5043412;28;20365;-76
2024/04/02 00:55:37;;;;;;;39.60;4.57;;;;;;;21.73;19.20;93172.19;5043259;28;20074;-76
2024/04/02 00:58:05;;;;;;;45.47;5.18;;;;;;;21.69;19.15;93185.00;5043086;28;20021;-74
2024/04/02 01:00:31;;;;;;;31.67;4.65;;;;;;;21.66;18.87;93180.38;5042984;28;20033;-74
2024/04/02 01:02:57;;;;;;;34.88;5.28;;;;;;;21.64;19.13;93166.47;5042830;28;20025;-75
2024/04/02 01:05:23;;;;;;;30.48;5.13;;;;;;;21.65;19.32;93167.97;5042926;28;20036;-75
2024/04/02 01:07:48;;;;;;;41.78;6.90;;;;;;;21.64;19.14;93174.59;5042819;28;20039;-74
2024/04/02 01:10:14;;;;;;;31.58;4.45;;;;;;;21.60;19.28;93163.00;5042955;28;20060;-75
2024/04/02 01:12:40;;;;;;;36.28;4.68;;;;;;;21.54;19.30;93167.31;5042940;28;20029;-75
2024/04/02 01:15:05;;;;;;;27.05;4.57;;;;;;;21.49;19.36;93178.56;5042986;28;20036;-76
2024/04/02 01:17:31;;;;;;;42.42;6.90;;;;;;;21.49;19.27;93171.19;5042392;28;20044;-73
2024/04/02 01:19:56;;;;;;;28.60;5.13;;;;;;;21.52;19.55;93183.22;5042628;28;20017;-74
2024/04/02 01:22:22;;;;;;;29.08;4.10;;;;;;;21.46;19.63;93168.53;5042391;28;20021;-75
2024/04/02 01:24:54;;;;;;;53.88;6.07;;;;;;;21.36;19.79;93191.81;5041380;28;20017;-76
2024/04/02 01:27:19;;;;;;;37.60;4.45;;;;;;;21.35;19.48;93161.22;5041753;28;20051;-76
2024/04/02 01:29:44;;;;;;;37.13;6.65;;;;;;;21.33;19.50;93174.41;5042406;28;20022;-76
2024/04/02 01:32:10;;;;;;;41.42;4.75;;;;;;;21.34;19.49;93175.94;5042597;28;20017;-75
2024/04/02 01:34:35;;;;;;;39.38;4.53;;;;;;;21.34;19.94;93203.03;5042767;28;20033;-75
2024/04/02 01:37:01;;;;;;;46.15;5.50;;;;;;;21.34;19.62;93165.09;5042351;28;20033;-75
2024/04/02 01:39:26;;;;;;;39.38;4.35;;;;;;;21.33;20.12;93163.56;5042386;28;20024;-75
2024/04/02 01:41:51;;;;;;;39.47;4.38;;;;;;;21.26;20.10;93179.09;5041103;28;20086;-75
2024/04/02 01:44:17;;;;;;;24.77;4.18;;;;;;;21.16;20.09;93184.16;5042310;28;20043;-76
2024/04/02 01:46:42;;;;;;;23.52;4.90;;;;;;;21.14;20.56;93167.53;5042297;28;20369;-75
2024/04/02 01:49:07;;;;;;;35.30;4.85;;;;;;;21.08;19.83;93173.78;5042515;28;20033;-76
2024/04/02 01:51:33;;;;;;;31.05;5.18;;;;;;;21.07;20.38;93167.59;5042267;28;20017;-76
2024/04/02 01:53:58;;;;;;;30.60;4.63;;;;;;;21.12;20.49;93156.31;5042291;28;20029;-77
2024/04/02 01:56:24;;;;;;;39.38;4.75;;;;;;;21.11;20.43;93151.31;5040938;28;20374;-77
2024/04/02 01:58:49;;;;;;;19.98;4.82;;;;;;;21.03;19.88;93154.06;5042217;28;20088;-76
2024/04/02 02:01:15;;;;;;;38.20;4.95;;;;;;;21.04;20.20;93152.91;5042082;28;20037;-76
2024/04/02 02:03:40;;;;;;;31.77;4.70;;;;;;;21.03;20.23;93126.97;5042319;28;20036;-77
2024/04/02 02:06:06;;;;;;;28.77;4.40;;;;;;;21.04;19.84;93114.19;5042298;28;20072;-76
2024/04/02 02:08:32;;;;;;;32.35;5.32;;;;;;;21.10;20.22;93119.97;5042077;28;20033;-76
2024/04/02 02:11:02;;;;;;;31.60;3.90;;;;;;;21.08;20.34;93119.59;5041996;28;20184;-77
2024/04/02 02:13:28;;;;;;;27.92;3.53;;;;;;;21.00;19.62;93108.81;5042101;28;20025;-75
2024/04/02 02:16:03;;;;;;;29.75;5.35;;;;;;;21.09;19.89;93115.72;5041933;28;20052;-75
2024/04/02 02:18:29;;;;;;;28.15;4.47;;;;;;;20.99;19.86;93112.69;5041947;28;20229;-75
2024/04/02 02:20:56;;;;;;;23.92;4.03;;;;;;;21.08;19.53;93092.50;5041978;28;20025;-75
2024/04/02 02:23:22;;;;;;;28.95;4.32;;;;;;;21.09;19.76;93094.81;5041893;28;20025;-75
2024/04/02 02:25:47;;;;;;;28.77;4.20;;;;;;;21.09;20.03;93083.97;5041930;28;20032;-74
2024/04/02 02:28:13;;;;;;;28.67;4.95;;;;;;;21.11;19.74;93081.66;5041818;28;20307;-74
2024/04/02 02:30:38;;;;;;;36.08;5.68;;;;;;;21.11;19.54;93076.22;5041928;28;20033;-74
2024/04/02 02:33:04;;;;;;;40.17;5.68;;;;;;;21.12;19.93;93069.63;5041994;28;20216;-74
2024/04/02 02:35:29;;;;;;;30.95;4.30;;;;;;;21.09;19.38;93039.88;5041571;28;20103;-74
2024/04/02 02:37:54;;;;;;;36.60;3.65;;;;;;;21.07;18.59;93053.03;5043261;28;20021;-74
2024/04/02 02:40:20;;;;;;;39.40;5.25;;;;;;;21.16;19.08;93050.63;5045536;28;20208;-74
2024/04/02 02:42:45;;;;;;;37.35;5.45;;;;;;;21.19;18.72;93083.13;5045285;28;20021;-74
2024/04/02 02:45:11;;;;;;;33.80;5.75;;;;;;;21.22;19.12;93071.47;5045479;28;20087;-75
2024/04/02 02:47:36;;;;;;;32.72;4.07;;;;;;;21.24;19.40;93057.53;5045687;28;20017;-74
2024/04/02 02:50:03;;;;;;;36.95;5.43;;;;;;;21.24;18.93;93057.53;5045269;28;20021;-74
2024/04/02 02:52:28;;;;;;;36.72;5.47;;;;;;;21.17;19.22;93050.25;5045386;28;20255;-74
2024/04/02 02:54:54;;;;;;;37.13;6.03;;;;;;;21.17;19.23;93066.50;5045158;28;20048;-74
2024/04/02 02:57:19;;;;;;;42.38;5.40;;;;;;;21.14;19.27;93055.69;5045145;28;20094;-74
2024/04/02 02:59:44;;;;;;;28.13;5.10;;;;;;;21.14;19.27;93071.94;5045151;28;20386;-74
2024/04/02 03:02:10;;;;;;;32.65;7.13;;;;;;;21.15;19.30;93049.09;5045331;28;20061;-74
2024/04/02 03:04:35;;;;;;;30.40;5.57;;;;;;;21.16;19.44;93099.41;5045380;28;20342;-75
2024/04/02 03:07:01;;;;;;;50.67;5.20;;;;;;;21.13;19.97;93051.44;5044976;28;20342;-76
2024/04/02 03:09:26;;;;;;;35.10;4.35;;;;;;;21.11;19.87;93072.75;5045039;28;20074;-75
2024/04/02 03:11:51;;;;;;;36.75;3.85;;;;;;;21.08;19.41;93073.53;5045037;28;20021;-75
2024/04/02 03:14:18;;;;;;;38.63;4.93;;;;;;;21.12;19.74;93087.81;5044800;28;20040;-76
2024/04/02 03:16:43;;;;;;;47.85;4.68;;;;;;;21.04;19.63;93060.00;5044854;28;20108;-76
2024/04/02 03:19:09;;;;;;;36.55;4.13;;;;;;;21.00;19.90;93057.34;5044850;28;20061;-76
2024/04/02 03:21:35;;;;;;;35.50;4.78;;;;;;;20.97;20.20;93063.56;5044860;28;20042;-76
2024/04/02 03:24:01;;;;;;;40.22;5.05;;;;;;;20.90;19.64;93066.28;5044685;28;20353;-75
2024/04/02 03:26:26;;;;;;;34.47;5.75;;;;;;;20.94;19.42;93077.09;5044727;28;20037;-75
2024/04/02 03:28:51;;;;;;;23.17;4.25;;;;;;;20.94;20.04;93079.81;5044573;28;20025;-75
2024/04/02 03:31:17;;;;;;;40.97;5.00;;;;;;;20.97;19.89;93079.81;5044699;28;20021;-75
2024/04/02 03:33:42;;;;;;;31.00;4.40;;;;;;;20.96;20.06;93083.66;5043445;28;20304;-75
2024/04/02 03:36:08;;;;;;;32.20;5.88;;;;;;;20.94;19.95;93096.06;5044525;28;20045;-75
2024/04/02 03:38:34;;;;;;;34.08;3.80;;;;;;;20.94;20.21;93077.09;5044545;28;20284;-75
2024/04/02 03:41:08;;;;;;;30.27;4.80;;;;;;;20.90;20.42;93095.31;5044356;28;20296;-76
2024/04/02 03:43:34;;;;;;;22.30;4.35;;;;;;;20.92;20.51;93111.94;5044314;28;20258;-76
2024/04/02 03:46:03;;;;;;;39.03;4.82;;;;;;;20.89;20.04;93091.84;5044492;28;20021;-76
2024/04/02 03:48:29;;;;;;;30.17;5.05;;;;;;;20.89;19.76;93085.66;5044368;28;20045;-76
2024/04/02 03:50:56;;;;;;;30.55;4.50;;;;;;;20.84;19.44;93079.50;5043733;28;20231;-75
2024/04/02 03:53:21;;;;;;;38.80;6.47;;;;;;;20.88;19.64;93111.19;5042860;28;20056;-76
2024/04/02 03:55:47;;;;;;;31.20;3.92;;;;;;;20.89;20.00;93101.91;5042870;28;20032;-77
2024/04/02 03:58:12;;;;;;;33.50;4.75;;;;;;;20.87;19.90;93105.03;5044229;28;20037;-75
2024/04/02 04:00:42;;;;;;;33.00;6.20;;;;;;;20.81;20.24;93118.19;5044252;28;20025;-76
2024/04/02 04:03:07;;;;;;;41.58;4.57;;;;;;;20.82;20.27;93105.44;5044243;28;20040;-76
2024/04/02 04:05:33;;;;;;;36.65;4.53;;;;;;;20.79;20.10;93114.34;5043993;28;20204;-76
2024/04/02 04:07:58;;;;;;;25.75;4.28;;;;;;;20.80;20.03;93099.63;5043911;28;20268;-76
2024/04/02 04:10:24;;;;;;;27.73;5.03;;;;;;;20.80;19.82;93105.06;5043895;28;20022;-76
2024/04/02 04:12:49;;;;;;;37.75;4.63;;;;;;;20.81;20.36;93107.38;5043920;28;20021;-76
2024/04/02 04:15:15;;;;;;;26.52;4.20;;;;;;;20.79;20.40;93115.13;5043593;28;20044;-76
2024/04/02 04:17:40;;;;;;;40.80;4.18;;;;;;;20.76;20.61;93112.41;5042474;28;20067;-75
2024/04/02 04:20:07;;;;;;;28.63;4.28;;;;;;;20.70;20.40;93146.50;5043732;28;20029;-75
2024/04/02 04:22:33;;;;;;;27.67;4.25;;;;;;;20.66;20.66;93167.41;5043616;28;20021;-75
2024/04/02 04:25:03;;;;;;;59.50;5.70;;;;;;;20.64;20.64;93159.69;5043587;28;20040;-75
2024/04/02 04:27:37;;;;;;;29.25;4.50;;;;;;;20.66;21.20;93176.31;5042281;28;20035;-74
2024/04/02 04:30:06;;;;;;;26.60;5.55;;;;;;;20.59;20.88;93158.16;5043745;28;20017;-75
2024/04/02 04:32:41;;;;;;;19.60;3.67;;;;;;;20.57;20.93;93156.97;5043450;28;20025;-75
2024/04/02 04:35:06;;;;;;;23.55;4.35;;;;;;;20.54;21.40;93146.94;5043426;28;20068;-75
2024/04/02 04:37:32;;;;;;;47.53;5.03;;;;;;;20.46;21.61;93154.31;5043212;28;20319;-75
2024/04/02 04:39:58;;;;;;;35.00;5.95;;;;;;;20.41;21.47;93187.19;5043286;28;20361;-75
2024/04/02 04:42:24;;;;;;;27.88;3.53;;;;;;;20.40;21.98;93180.25;5043250;28;20107;-75
2024/04/02 04:44:50;;;;;;;35.13;4.65;;;;;;;20.34;21.70;93168.28;5043018;28;20021;-75
2024/04/02 04:47:15;;;;;;;29.80;4.15;;;;;;;20.35;21.84;93175.22;5043203;28;20021;-75
2024/04/02 04:49:40;;;;;;;31.92;5.22;;;;;;;20.31;22.36;93163.63;5042934;28;20025;-75
2024/04/02 04:52:07;;;;;;;32.58;4.93;;;;;;;20.29;22.52;93160.56;5043041;28;20036;-75
2024/04/02 04:54:33;;;;;;;33.63;5.60;;;;;;;20.15;22.02;93148.63;5042763;28;20323;-75
2024/04/02 04:56:58;;;;;;;27.65;4.68;;;;;;;20.01;22.23;93184.59;5042835;28;20052;-75
2024/04/02 04:59:24;;;;;;;57.05;6.20;;;;;;;20.07;21.99;93163.31;5042790;28;20029;-76
2024/04/02 05:01:49;;;;;;;31.02;3.58;;;;;;;20.08;22.50;93188.44;5042607;28;20037;-76
2024/04/02 05:04:15;;;;;;;20.95;5.13;;;;;;;20.06;22.46;93177.22;5042997;28;20017;-76
2024/04/02 05:06:42;;;;;;;35.35;5.50;;;;;;;19.99;22.28;93180.72;5042783;28;20025;-76
2024/04/02 05:09:11;;;;;;;43.92;5.32;;;;;;;20.08;22.55;93180.31;5042745;28;20054;-76
2024/04/02 05:11:40;;;;;;;38.95;4.93;;;;;;;20.04;22.89;93199.25;5042848;28;20021;-76
2024/04/02 05:14:06;;;;;;;55.75;5.40;;;;;;;20.00;22.50;93190.38;5042835;28;20025;-76
2024/04/02 05:16:34;;;;;;;28.17;5.00;;;;;;;19.93;22.68;93210.09;5042522;28;20296;-76
2024/04/02 05:19:00;;;;;;;39.70;4.32;;;;;;;19.98;22.64;93166.41;5042451;28;20025;-76
2024/04/02 05:21:25;;;;;;;34.72;4.47;;;;;;;20.08;22.83;93181.09;5042261;28;20051;-76
2024/04/02 05:23:51;;;;;;;30.63;4.20;;;;;;;19.99;23.11;93202.38;5042578;28;20088;-76
2024/04/02 05:26:17;;;;;;;28.08;5.13;;;;;;;19.93;22.97;93195.81;5042486;28;20017;-75
2024/04/02 05:28:43;;;;;;;22.15;4.60;;;;;;;19.93;25.41;93209.34;5042494;28;20017;-70
2024/04/02 05:31:09;;;;;;;33.30;4.03;;;;;;;19.96;25.91;93198.47;5042510;28;20044;-71
2024/04/02 05:33:34;;;;;;;35.70;4.72;;;;;;;20.01;26.01;93216.28;5042244;28;20025;-70
2024/04/02 05:36:01;;;;;;;26.98;5.88;;;;;;;19.98;24.46;93181.88;5042276;28;20298;-69
2024/04/02 05:38:26;;;;;;;35.90;4.55;;;;;;;20.00;23.68;93217.41;5042717;28;20080;-75
2024/04/02 05:40:52;;;;;;;32.50;4.95;;;;;;;19.96;23.63;93173.38;5042144;28;20327;-73
2024/04/02 05:43:17;;;;;;;26.08;4.93;;;;;;;20.02;23.32;93210.47;5042554;28;20224;-73
2024/04/02 05:45:42;;;;;;;27.02;4.28;;;;;;;20.10;23.17;93213.16;5042488;28;20032;-75
2024/04/02 05:48:08;;;;;;;26.30;5.55;;;;;;;20.09;23.23;93215.09;5042501;28;20029;-75
2024/04/02 05:50:33;;;;;;;35.67;5.03;;;;;;;20.11;23.79;93206.59;5042270;28;20025;-74
2024/04/02 05:52:58;;;;;;;25.83;4.07;;;;;;;20.22;23.33;93218.16;5042548;28;20031;-75
2024/04/02 05:55:24;;;;;;;37.53;4.40;;;;;;;20.13;23.66;93215.06;5043056;28;20088;-76
2024/04/02 05:57:50;;;;;;;20.63;4.10;;;;;;;20.15;23.01;93224.38;5043611;28;20220;-75
2024/04/02 06:00:15;;;;;;;35.22;4.35;;;;;;;20.10;23.46;93234.81;5043075;28;20068;-77
2024/04/02 06:02:42;;;;;;;36.92;6.80;;;;;;;20.11;23.58;93237.13;5042837;28;20032;-77
2024/04/02 06:05:08;;;;;;;22.48;4.32;;;;;;;20.13;23.57;93236.72;5042587;28;20029;-75
2024/04/02 06:07:33;;;;;;;29.95;4.90;;;;;;;20.10;23.61;93259.91;5042616;28;20021;-75
2024/04/02 06:09:58;;;;;;;27.17;3.83;;;;;;;20.14;23.30;93243.69;5042450;28;20033;-82
2024/04/02 06:12:24;;;;;;;24.75;4.07;;;;;;;20.14;23.54;93241.75;5043185;28;20021;-81
2024/04/02 06:14:49;;;;;;;18.95;3.70;;;;;;;20.14;23.55;93249.88;5044646;28;20247;-81
2024/04/02 06:17:15;;;;;;;26.55;4.97;;;;;;;20.16;23.86;93242.13;5046545;28;20052;-81
2024/04/02 06:19:40;;;;;;;32.92;4.85;;;;;;;20.25;24.03;93233.59;5046588;28;20085;-83
2024/04/02 06:22:05;;;;;;;30.60;4.20;;;;;;;20.25;24.10;93230.91;5045704;28;20025;-83
2024/04/02 06:24:31;;;;;;;31.83;5.53;;;;;;;20.32;24.41;93244.44;5045931;28;20021;-84
2024/04/02 06:26:56;;;;;;;25.88;5.47;;;;;;;20.41;24.27;93235.91;5046674;28;20029;-79
2024/04/02 06:29:22;;;;;;;32.63;4.50;;;;;;;20.30;24.82;93268.41;5046343;28;20383;-80
2024/04/02 06:31:47;;;;;;;28.27;3.60;;;;;;;20.25;24.94;93257.97;5046336;28;20029;-79
2024/04/02 06:34:13;;;;;;;35.53;5.55;;;;;;;20.11;25.55;93269.59;5046265;28;20315;-79
2024/04/02 06:36:38;;;;;;;25.83;5.97;;;;;;;20.02;25.64;93271.91;5045830;28;20058;-79
2024/04/02 06:39:04;;;;;;;36.10;4.45;;;;;;;19.98;25.42;93279.25;5046418;28;20192;-79
2024/04/02 06:41:29;;;;;;;35.97;4.50;;;;;;;19.95;25.70;93291.63;5046010;28;20029;-79
2024/04/02 06:43:55;;;;;;;27.83;4.68;;;;;;;19.99;25.99;93297.03;5044694;28;20025;-79
2024/04/02 06:46:20;;;;;;;26.80;7.28;;;;;;;19.99;26.07;93297.03;5045943;28;20285;-80
2024/04/02 06:48:46;;;;;;;38.50;5.90;;;;;;;20.07;26.63;93308.59;5045706;28;20059;-77
2024/04/02 06:51:13;;;;;;;26.25;5.18;;;;;;;20.12;26.35;93306.28;5045689;28;20093;-78
2024/04/02 06:53:39;;;;;;;21.60;5.38;;;;;;;19.94;27.21;93327.16;5045616;28;20017;-77
2024/04/02 06:56:06;;;;;;;29.90;4.45;;;;;;;19.80;27.02;93296.25;5045641;28;20056;-76
2024/04/02 06:58:32;;;;;;;30.08;4.28;;;;;;;19.82;27.44;93328.28;5045813;28;20049;-80
2024/04/02 07:00:57;;;;;;;33.05;5.30;;;;;;;19.79;27.07;93321.72;5045062;28;20029;-75
2024/04/02 07:03:23;;;;;;;30.70;4.30;;;;;;;19.83;27.96;93308.97;5045525;28;20033;-79
2024/04/02 07:05:50;;;;;;;28.60;5.25;;;;;;;19.74;28.80;93322.13;5044477;28;20068;-79
2024/04/02 07:08:16;;;;;;;23.17;4.70;;;;;;;19.67;29.95;93322.06;5042480;28;20320;-79
2024/04/02 07:10:44;;;;;;;20.55;4.55;;;;;;;19.52;30.52;93342.09;5043920;28;20067;-81
2024/04/02 07:13:11;;;;;;;28.75;5.00;;;;;;;19.33;30.20;93340.50;5044095;28;20018;-81
2024/04/02 07:15:36;;;;;;;29.25;8.50;;;;;;;19.34;31.01;93342.06;5045210;28;20319;-81
2024/04/02 07:18:02;;;;;;;27.90;4.78;;;;;;;19.26;32.48;93338.56;5041577;28;20024;-81
2024/04/02 07:20:28;;;;;;;25.75;5.05;;;;;;;19.31;33.40;93351.69;5043486;28;20215;-81
2024/04/02 07:22:53;;;;;;;37.13;4.60;;;;;;;19.28;33.02;93341.66;5044112;28;20029;-81
2024/04/02 07:25:19;;;;;;;28.70;5.30;;;;;;;19.31;32.70;93340.88;5042733;28;20355;-81
2024/04/02 07:27:47;;;;;;;29.73;6.63;;;;;;;19.27;32.00;93369.03;5043388;28;20017;-81
2024/04/02 07:30:12;;;;;;;29.98;6.32;;;;;;;19.16;32.69;93360.91;5043406;28;20220;-80
2024/04/02 07:32:38;;;;;;;31.85;5.60;;;;;;;19.04;32.61;93341.16;5044032;28;20021;-81
2024/04/02 07:35:04;;;;;;;22.70;4.18;;;;;;;19.15;32.70;93360.13;5044585;28;20201;-81
2024/04/02 07:37:30;;;;;;;27.02;7.82;;;;;;;19.18;34.07;93358.59;5044237;28;20040;-81
2024/04/02 07:39:55;;;;;;;25.88;5.18;;;;;;;19.29;34.53;93347.81;5044433;28;20031;-80
2024/04/02 07:42:21;;;;;;;25.58;6.43;;;;;;;19.22;34.61;93367.47;5044686;28;20032;-81
2024/04/02 07:44:46;;;;;;;33.88;7.10;;;;;;;19.25;34.76;93353.19;5044669;28;20026;-81
2024/04/02 07:47:12;;;;;;;30.08;6.05;;;;;;;19.36;35.40;93364.84;5043195;28;20272;-81
2024/04/02 07:49:37;;;;;;;42.38;8.13;;;;;;;19.23;35.88;93367.13;5045042;28;20022;-81
2024/04/02 07:52:03;;;;;;;25.17;6.60;;;;;;;19.28;36.67;93352.47;5044711;28;20016;-82
2024/04/02 07:54:29;;;;;;;45.85;9.48;;;;;;;19.19;35.71;93373.63;5044264;28;20022;-81
2024/04/02 07:56:54;;;;;;;37.95;8.40;;;;;;;19.00;36.02;93370.06;5044443;28;20021;-80
2024/04/02 07:59:20;;;;;;;32.05;7.97;;;;;;;19.01;35.35;93363.53;5044086;28;20376;-79
2024/04/02 08:01:46;;;;;;;27.35;6.88;;;;;;;19.08;35.46;93370.13;5044483;28;20029;-80
2024/04/02 08:04:11;;;;;;;38.30;7.20;;;;;;;19.13;34.90;93359.75;5044396;28;20063;-80
2024/04/02 08:06:36;;;;;;;30.35;6.63;;;;;;;19.17;35.55;93346.22;5044538;28;20021;-80
2024/04/02 08:09:02;;;;;;;33.75;7.82;;;;;;;19.19;35.81;93354.72;5044261;28;20088;-80
2024/04/02 08:11:28;;;;;;;32.47;6.78;;;;;;;19.19;35.65;93354.72;5044368;28;20013;-79
2024/04/02 08:13:53;;;;;;;32.15;7.32;;;;;;;19.27;35.65;93380.63;5044434;28;20096;-80
2024/04/02 08:16:19;;;;;;;32.25;8.00;;;;;;;19.15;35.06;93348.53;5044053;28;20022;-80
2024/04/02 08:18:47;;;;;;;45.40;8.82;;;;;;;19.24;35.78;93348.97;5044160;28;20315;-80
2024/04/02 08:21:12;;;;;;;33.75;6.95;;;;;;;19.13;35.37;93351.63;5044193;28;20025;-79
2024/04/02 08:23:38;;;;;;;22.75;5.20;;;;;;;19.01;35.18;93333.03;5044264;28;20056;-78
2024/04/02 08:26:04;;;;;;;44.58;8.70;;;;;;;19.26;35.58;93318.88;5044165;28;20132;-80
2024/04/02 08:28:29;;;;;;;34.65;5.82;;;;;;;19.38;35.11;93340.16;5043937;28;20017;-80
2024/04/02 08:30:55;;;;;;;24.27;4.20;;;;;;;19.39;33.59;93326.22;5044021;28;20132;-80
2024/04/02 08:33:21;;;;;;;30.85;5.35;;;;;;;19.30;33.78;93312.31;5044087;28;20039;-80
2024/04/02 08:35:50;;;;;;;27.08;5.05;;;;;;;19.34;34.87;93337.44;5043336;28;20132;-79
2024/04/02 08:38:15;;;;;;;37.25;5.25;;;;;;;19.52;32.59;93310.47;5043724;28;20284;-80
2024/04/02 08:40:41;;;;;;;32.65;4.63;;;;;;;19.73;33.36;93328.66;5043221;28;20067;-80
2024/04/02 08:43:08;;;;;;;24.83;4.38;;;;;;;19.94;32.24;93332.56;5043648;28;20025;-80
2024/04/02 08:45:37;;;;;;;24.75;4.10;;;;;;;20.02;32.14;93313.25;5042277;28;20312;-80
2024/04/02 08:48:03;;;;;;;23.35;3.30;;;;;;;20.17;30.74;93308.63;5043608;28;20033;-80
2024/04/02 08:50:29;;;;;;;20.40;3.55;;;;;;;20.28;29.81;93326.78;5043709;28;20021;-80
2024/04/02 08:52:54;;;;;;;26.63;4.28;;;;;;;20.28;28.92;93338.38;5043758;28;20193;-81
2024/04/02 08:55:20;;;;;;;27.73;4.43;;;;;;;20.31;28.63;93353.81;5043155;28;20342;-81
2024/04/02 08:57:50;;;;;;;23.63;2.97;;;;;;;20.18;28.53;93329.09;5042335;28;20114;-81
2024/04/02 09:00:17;;;;;;;29.85;4.38;;;;;;;20.24;28.51;93318.66;5043539;28;20342;-80
2024/04/02 09:02:46;;;;;;;17.17;2.75;;;;;;;20.15;28.33;93340.72;5043355;28;20024;-81
2024/04/02 09:05:12;;;;;;;28.88;4.70;;;;;;;20.28;27.18;93338.38;5042334;28;20026;-80
2024/04/02 09:07:37;;;;;;;20.30;3.40;;;;;;;20.36;27.01;93339.16;5043458;28;20044;-81
2024/04/02 09:10:03;;;;;;;21.73;3.13;;;;;;;20.39;27.06;93331.03;5041685;28;20104;-80
2024/04/02 09:12:28;;;;;;;13.38;2.53;;;;;;;20.40;25.83;93348.81;5042609;28;20041;-80
2024/04/02 09:14:54;;;;;;;14.13;2.80;;;;;;;20.34;24.43;93336.81;5042724;28;20078;-81
2024/04/02 09:17:19;;;;;;;18.83;3.00;;;;;;;20.27;25.25;93358.47;5043110;28;20031;-80
2024/04/02 09:19:45;;;;;;;18.98;2.55;;;;;;;20.38;24.45;93367.38;5043091;28;20057;-79
2024/04/02 09:22:11;;;;;;;22.23;3.08;;;;;;;20.31;24.19;93326.00;5043244;28;20036;-81
2024/04/02 09:24:37;;;;;;;16.83;2.92;;;;;;;20.43;24.90;93317.47;5043442;28;20061;-79
2024/04/02 09:27:03;;;;;;;16.08;3.17;;;;;;;20.46;23.28;93338.38;5042753;28;20053;-79
2024/04/02 09:29:29;;;;;;;27.17;3.45;;;;;;;20.57;23.24;93328.28;5042660;28;20378;-80
2024/04/02 09:31:58;;;;;;;27.38;4.22;;;;;;;20.70;24.39;93333.31;5042605;28;20010;-80
2024/04/02 09:34:25;;;;;;;15.38;3.10;;;;;;;20.44;25.72;93327.94;5042823;28;20052;-80
2024/04/02 09:37:12;;;;;;;10.02;2.83;;;;;;;20.58;25.71;93337.22;5042975;28;20044;-80
2024/04/02 09:39:40;;;;;;;19.77;3.90;;;;;;;20.69;24.09;93342.63;5042897;28;20040;-80
2024/04/02 09:42:09;;;;;;;20.20;3.85;;;;;;;20.70;24.15;93327.91;5041470;28;20037;-80
2024/04/02 09:44:36;;;;;;;19.95;3.67;;;;;;;20.83;24.84;93354.19;5042812;28;20029;-79
2024/04/02 09:47:02;;;;;;;13.15;2.30;;;;;;;20.79;24.55;93336.41;5040906;28;20167;-80
2024/04/02 09:49:28;;;;;;;17.52;2.97;;;;;;;20.80;25.20;93348.78;5039557;28;20029;-79
2024/04/02 09:51:56;;;;;;;15.52;3.25;;;;;;;20.81;24.99;93350.34;5040934;28;20028;-79
2024/04/02 09:54:22;;;;;;;16.48;2.90;;;;;;;20.94;25.09;93347.97;5040840;28;20247;-79
2024/04/02 09:56:49;;;;;;;19.23;3.80;;;;;;;20.82;24.69;93333.72;5041887;28;20350;-80
2024/04/02 09:59:15;;;;;;;19.83;2.63;;;;;;;20.97;25.12;93342.56;5041626;28;20385;-79
2024/04/02 10:01:41;;;;;;;11.02;3.08;;;;;;;20.82;25.41;93341.03;5042517;28;20041;-80
2024/04/02 10:04:09;;;;;;;17.33;4.05;;;;;;;20.91;24.44;93341.41;5042828;28;20218;-79
2024/04/02 10:06:36;;;;;;;17.10;3.80;;;;;;;20.94;21.98;93348.75;5042256;28;20025;-79
2024/04/02 10:09:15;;;;;;;16.20;4.25;;;;;;;20.70;20.82;93346.88;5042045;28;20025;-79
2024/04/02 10:11:42;;;;;;;16.27;3.28;;;;;;;20.72;21.24;93347.25;5042376;28;20251;-79
2024/04/02 10:14:09;;;;;;;13.25;2.45;;;;;;;20.70;22.28;93338.75;5042300;28;20033;-79
2024/04/02 10:16:38;;;;;;;18.50;4.32;;;;;;;20.54;20.72;93353.44;5040984;28;20326;-79
2024/04/02 10:19:04;;;;;;;20.17;3.38;;;;;;;20.47;20.24;93342.63;5042309;28;20040;-79
2024/04/02 10:21:32;;;;;;;11.95;3.00;;;;;;;20.25;20.87;93358.06;5040599;28;20033;-79
2024/04/02 10:23:58;;;;;;;10.80;2.42;;;;;;;20.08;21.42;93343.38;5041969;28;20123;-82
2024/04/02 10:26:29;;;;;;;8.23;2.10;;;;;;;20.05;21.11;93349.59;5042089;28;20021;-82
2024/04/02 10:28:55;;;;;;;9.85;2.60;;;;;;;20.06;21.62;93342.25;5042512;28;20093;-82
2024/04/02 10:31:21;;;;;;;10.27;2.45;;;;;;;19.93;21.42;93342.63;5042578;28;20029;-83
2024/04/02 10:33:50;;;;;;;8.18;1.80;;;;;;;19.94;21.12;93341.44;5042300;28;20219;-82
2024/04/02 10:36:16;;;;;;;10.85;2.20;;;;;;;20.04;20.89;93337.97;5042335;28;20049;-83
2024/04/02 10:38:42;;;;;;;7.97;1.60;;;;;;;20.18;21.14;93331.81;5042880;28;20021;-82
2024/04/02 10:41:07;;;;;;;8.15;2.20;;;;;;;20.30;20.87;93333.34;5043156;28;20017;-82
2024/04/02 10:43:33;;;;;;;5.53;1.67;;;;;;;20.34;20.15;93349.59;5042794;28;20357;-84
2024/04/02 10:45:59;;;;;;;8.45;2.38;;;;;;;20.29;20.66;93342.63;5042789;28;20272;-84
2024/04/02 10:48:24;;;;;;;6.53;2.42;;;;;;;20.27;20.29;93339.53;5042836;28;20044;-84
2024/04/02 10:50:53;;;;;;;6.20;2.00;;;;;;;20.19;19.87;93344.19;5041616;28;20025;-84
2024/04/02 10:53:18;;;;;;;10.60;2.00;;;;;;;20.22;20.48;93337.22;5041615;28;20022;-84
2024/04/02 10:55:43;;;;;;;6.10;1.77;;;;;;;20.34;20.29;93314.41;5042663;28;20020;-84
2024/04/02 10:58:10;;;;;;;6.40;1.73;;;;;;;20.45;20.35;93325.97;5043034;28;20028;-84
2024/04/02 11:00:36;;;;;;;8.05;2.30;;;;;;;20.41;19.01;93331.44;5046226;28;20092;-84
2024/04/02 11:03:03;;;;;;;4.53;1.80;;;;;;;20.28;18.39;93314.03;5045806;28;20029;-85
2024/04/02 11:05:29;;;;;;;7.22;2.47;;;;;;;20.32;19.39;93325.63;5046087;28;20033;-84
2024/04/02 11:07:57;;;;;;;6.43;1.40;;;;;;;20.32;18.69;93332.97;5045757;28;20044;-86
2024/04/02 11:10:22;;;;;;;10.13;1.60;;;;;;;20.35;19.72;93318.66;5045882;28;20027;-86
2024/04/02 11:12:49;;;;;;;6.43;1.20;;;;;;;20.20;17.16;93313.25;5045628;28;20013;-87
2024/04/02 11:15:15;;;;;;;5.75;1.42;;;;;;;20.26;18.05;93310.16;5045891;28;20033;-85
2024/04/02 11:17:40;;;;;;;9.07;1.65;;;;;;;20.37;17.66;93305.50;5045583;28;20036;-85
2024/04/02 11:20:11;;;;;;;11.50;2.13;;;;;;;20.45;17.96;93307.03;5045474;28;20029;-85
2024/04/02 11:25:21;;;;;;;10.63;1.92;;;;;;;20.54;18.29;93299.31;5045622;28;20028;-87